Time;durP1;ratioP1;P1;durP2;ratioP2;P2;SDS_P1;SDS_P2;PMS_P1;PMS_P2;Temp;Humidity;BMP_temperature;BMP_pressure;BME280_temperature;BME280_humidity;BME280_pressure;Samples;Min_cycle;Max_cycle;Signal;HPM_P1;HPM_P2
2021/01/02 00:00:25;;;;;;;7.78;5.97;;;10.20;99.90;;;;;;5003035;28;20192;-27
2021/01/02 00:03:22;;;;;;;2.47;2.00;;;10.20;99.90;;;;;;5005485;28;20200;-28
2021/01/02 00:06:02;;;;;;;2.05;1.77;;;10.20;99.90;;;;;;5003314;28;20196;-27
2021/01/02 00:08:33;;;;;;;3.05;2.67;;;10.20;99.90;;;;;;5007564;28;20278;-27
2021/01/02 00:11:27;;;;;;;3.80;2.42;;;10.20;99.90;;;;;;5003412;28;20579;-27
2021/01/02 00:14:11;;;;;;;2.40;2.20;;;10.10;99.90;;;;;;5002631;28;20215;-27
2021/01/02 00:17:12;;;;;;;5.00;4.50;;;10.00;99.90;;;;;;5008310;28;20244;-27
2021/01/02 00:20:07;;;;;;;3.63;3.30;;;10.00;99.90;;;;;;5011388;28;20246;-28
2021/01/02 00:22:48;;;;;;;3.78;3.45;;;10.00;99.90;;;;;;5012821;28;20208;-26
2021/01/02 00:25:18;;;;;;;2.95;2.75;;;10.00;99.90;;;;;;4996953;28;20192;-27
2021/01/02 00:28:16;;;;;;;2.72;2.53;;;10.00;99.90;;;;;;5010426;28;20191;-26
2021/01/02 00:31:14;;;;;;;2.63;2.42;;;10.00;99.90;;;;;;5011181;28;20227;-28
2021/01/02 00:34:11;;;;;;;3.35;3.05;;;9.90;99.90;;;;;;4999756;28;20199;-28
2021/01/02 00:36:55;;;;;;;4.60;4.30;;;9.90;99.90;;;;;;5012167;28;20265;-27
2021/01/02 00:39:36;;;;;;;4.97;2.55;;;9.90;99.90;;;;;;5022521;28;20718;-28
2021/01/02 00:42:07;;;;;;;8.05;6.75;;;10.00;99.90;;;;;;5020490;28;20192;-27
2021/01/02 00:44:42;;;;;;;5.22;4.40;;;9.90;99.90;;;;;;5011465;28;20718;-27
2021/01/02 00:47:12;;;;;;;4.53;3.80;;;10.00;99.90;;;;;;5023163;28;20191;-27
2021/01/02 00:49:44;;;;;;;5.97;5.47;;;10.00;99.90;;;;;;5012049;28;20216;-26
2021/01/02 00:52:30;;;;;;;8.30;7.50;;;10.00;99.90;;;;;;5011442;28;20245;-27
2021/01/02 00:55:13;;;;;;;7.18;6.35;;;10.00;99.90;;;;;;5013929;28;20556;-27
2021/01/02 00:57:59;;;;;;;4.20;2.90;;;10.00;99.90;;;;;;5021837;28;20187;-27
2021/01/02 01:00:34;;;;;;;3.03;2.72;;;10.00;99.90;;;;;;5011035;28;20214;-27
2021/01/02 01:03:06;;;;;;;5.75;3.03;;;10.00;99.90;;;;;;5011627;28;20207;-27
2021/01/02 01:05:37;;;;;;;4.63;4.07;;;10.00;99.90;;;;;;5011162;28;20196;-28
2021/01/02 01:08:09;;;;;;;5.90;5.40;;;9.90;99.90;;;;;;5025668;28;20711;-27
2021/01/02 01:10:39;;;;;;;2.53;2.30;;;9.90;99.90;;;;;;5020080;28;20262;-28
2021/01/02 01:13:10;;;;;;;4.20;3.80;;;9.90;99.90;;;;;;5014537;28;20237;-28
2021/01/02 01:15:41;;;;;;;3.63;3.03;;;9.90;99.90;;;;;;5016200;28;20254;-28
2021/01/02 01:18:22;;;;;;;3.33;3.03;;;10.00;99.90;;;;;;5022164;28;20199;-27
2021/01/02 01:21:00;;;;;;;4.05;3.60;;;9.90;99.90;;;;;;5016492;28;20203;-27
2021/01/02 01:23:49;;;;;;;8.43;6.60;;;9.80;99.90;;;;;;5011238;28;20279;-27
2021/01/02 01:26:46;;;;;;;3.13;2.88;;;9.90;99.90;;;;;;5010810;28;20219;-27
2021/01/02 01:29:23;;;;;;;4.10;3.67;;;9.90;99.90;;;;;;5010863;28;20231;-27
2021/01/02 01:31:58;;;;;;;3.38;3.00;;;9.90;99.90;;;;;;5010148;28;20257;-27
2021/01/02 01:34:31;;;;;;;7.65;6.32;;;9.90;99.90;;;;;;5011382;28;20194;-27
2021/01/02 01:37:04;;;;;;;4.75;3.13;;;9.90;99.90;;;;;;5011349;28;20196;-27
2021/01/02 01:39:37;;;;;;;2.90;2.70;;;9.90;99.90;;;;;;5010829;28;20223;-27
2021/01/02 01:42:08;;;;;;;3.22;2.92;;;9.90;99.90;;;;;;5010983;28;20196;-27
2021/01/02 01:44:55;;;;;;;3.20;2.90;;;9.90;99.90;;;;;;5010510;28;20200;-27
2021/01/02 01:47:37;;;;;;;3.75;3.03;;;10.00;99.90;;;;;;5010399;28;20199;-26
2021/01/02 01:50:22;;;;;;;4.25;3.88;;;9.90;99.90;;;;;;5010761;28;20235;-27
2021/01/02 01:53:30;;;;;;;5.40;5.00;;;9.90;99.90;;;;;;5010501;28;20200;-27
2021/01/02 01:56:15;;;;;;;4.60;3.90;;;9.90;99.90;;;;;;5010660;28;20257;-27
2021/01/02 01:59:14;;;;;;;3.92;3.63;;;9.90;99.90;;;;;;5005160;28;20652;-26
2021/01/02 02:01:48;;;;;;;4.50;4.10;;;10.00;99.90;;;;;;5010920;28;20587;-27
2021/01/02 02:05:00;;;;;;;3.97;3.58;;;10.00;99.90;;;;;;5011415;28;20215;-27
2021/01/02 02:07:42;;;;;;;5.20;4.70;;;10.00;99.90;;;;;;5008795;28;20219;-27
2021/01/02 02:10:16;;;;;;;4.30;3.90;;;10.00;99.90;;;;;;5009790;28;20227;-28
2021/01/02 02:12:54;;;;;;;5.40;4.20;;;10.00;99.90;;;;;;5009427;28;20230;-29
2021/01/02 02:15:26;;;;;;;3.97;3.45;;;10.00;99.90;;;;;;5009675;28;20194;-27
2021/01/02 02:18:05;;;;;;;5.30;4.38;;;10.00;99.90;;;;;;5010083;28;20253;-27
2021/01/02 02:20:36;;;;;;;4.63;4.20;;;10.00;99.90;;;;;;5009939;28;20257;-27
2021/01/02 02:23:07;;;;;;;4.90;4.00;;;10.10;99.90;;;;;;5009913;28;20270;-28
2021/01/02 02:26:05;;;;;;;4.13;3.13;;;10.10;99.90;;;;;;5010124;28;20192;-28
2021/01/02 02:29:22;;;;;;;3.42;3.13;;;10.10;99.90;;;;;;4997558;28;20231;-28
2021/01/02 02:31:56;;;;;;;2.90;2.70;;;10.10;99.90;;;;;;5013673;28;20217;-28
2021/01/02 02:34:28;;;;;;;1.85;1.75;;;10.10;99.90;;;;;;5010829;28;20195;-27
2021/01/02 02:36:58;;;;;;;2.95;2.75;;;10.10;99.90;;;;;;5009380;28;20185;-28
2021/01/02 02:39:28;;;;;;;3.25;3.00;;;10.10;99.90;;;;;;5008049;28;20211;-28
2021/01/02 02:42:01;;;;;;;2.30;2.03;;;10.00;99.90;;;;;;5009953;28;20196;-28
2021/01/02 02:44:38;;;;;;;3.08;2.78;;;10.00;99.90;;;;;;5006883;28;20195;-28
2021/01/02 02:47:09;;;;;;;2.55;2.35;;;10.00;99.90;;;;;;5006043;28;20540;-27
2021/01/02 02:49:43;;;;;;;1.80;1.70;;;10.00;99.90;;;;;;5008056;28;20756;-28
2021/01/02 02:52:24;;;;;;;2.35;2.15;;;9.90;99.90;;;;;;5009069;28;20239;-28
2021/01/02 02:54:54;;;;;;;3.10;1.95;;;10.00;99.90;;;;;;5012429;28;20255;-28
2021/01/02 02:57:25;;;;;;;1.73;1.63;;;10.00;99.90;;;;;;5007702;28;20310;-27
2021/01/02 02:59:56;;;;;;;3.35;1.70;;;9.90;99.90;;;;;;5009717;28;20287;-27
2021/01/02 03:02:28;;;;;;;2.15;1.77;;;9.90;99.90;;;;;;5005550;28;20247;-27
2021/01/02 03:04:59;;;;;;;1.95;1.70;;;9.90;99.90;;;;;;5006364;28;20196;-27
2021/01/02 03:07:29;;;;;;;1.65;1.55;;;9.80;99.90;;;;;;5010782;28;20591;-27
2021/01/02 03:09:59;;;;;;;1.80;1.70;;;9.80;99.90;;;;;;5008983;28;20227;-27
2021/01/02 03:12:29;;;;;;;1.95;1.70;;;9.80;99.90;;;;;;5010005;28;20227;-27
2021/01/02 03:15:01;;;;;;;1.20;1.10;;;9.80;99.90;;;;;;5005430;28;20191;-27
2021/01/02 03:17:31;;;;;;;1.33;1.23;;;9.70;99.90;;;;;;5009094;28;20253;-28
2021/01/02 03:20:01;;;;;;;1.70;1.25;;;9.60;99.90;;;;;;5009480;28;20541;-28
2021/01/02 03:22:31;;;;;;;1.35;1.25;;;9.60;99.90;;;;;;5010038;28;20206;-28
2021/01/02 03:25:01;;;;;;;1.33;1.23;;;9.60;99.90;;;;;;5018754;28;20222;-27
2021/01/02 03:27:31;;;;;;;1.92;1.42;;;9.60;99.90;;;;;;5012431;28;20262;-27
2021/01/02 03:30:02;;;;;;;1.40;1.30;;;9.60;99.90;;;;;;5003514;28;20230;-27
2021/01/02 03:32:32;;;;;;;1.30;1.10;;;9.50;99.90;;;;;;5008853;28;20200;-27
2021/01/02 03:35:05;;;;;;;1.42;1.30;;;9.60;99.90;;;;;;5009589;28;20212;-27
2021/01/02 03:37:36;;;;;;;0.63;0.63;;;9.60;99.90;;;;;;4996363;28;20187;-27
2021/01/02 03:40:07;;;;;;;2.03;1.83;;;9.60;99.90;;;;;;5009939;28;20200;-28
2021/01/02 03:42:38;;;;;;;1.48;1.15;;;9.60;99.90;;;;;;5009098;28;20609;-27
2021/01/02 03:45:11;;;;;;;1.65;1.55;;;9.50;99.90;;;;;;5008922;28;20188;-28
2021/01/02 03:47:45;;;;;;;1.40;0.85;;;9.50;99.90;;;;;;5009184;28;20202;-28
2021/01/02 03:50:17;;;;;;;1.23;0.70;;;9.50;99.90;;;;;;5008601;28;20208;-28
2021/01/02 03:52:47;;;;;;;0.90;0.90;;;9.50;99.90;;;;;;5009331;28;20196;-28
2021/01/02 03:55:17;;;;;;;1.05;0.88;;;9.50;99.90;;;;;;5012781;28;20234;-28
2021/01/02 03:57:47;;;;;;;2.80;1.10;;;9.40;99.90;;;;;;5012439;28;20203;-28
2021/01/02 04:00:19;;;;;;;1.42;1.10;;;9.50;99.90;;;;;;5011388;28;20206;-28
2021/01/02 04:02:50;;;;;;;1.52;1.20;;;9.50;99.90;;;;;;5013063;28;20662;-28
2021/01/02 04:05:20;;;;;;;1.10;1.00;;;9.50;99.90;;;;;;5012888;28;20203;-28
2021/01/02 04:07:50;;;;;;;0.70;0.60;;;9.40;99.90;;;;;;5012936;28;20183;-28
2021/01/02 04:10:20;;;;;;;1.10;1.00;;;9.50;99.90;;;;;;5004268;28;20228;-28
2021/01/02 04:12:50;;;;;;;1.23;1.00;;;9.40;99.90;;;;;;5011769;28;20265;-28
2021/01/02 04:15:21;;;;;;;1.00;0.90;;;9.40;99.90;;;;;;5011655;28;20200;-27
2021/01/02 04:17:51;;;;;;;1.10;1.00;;;9.40;99.90;;;;;;5012555;28;20199;-27
2021/01/02 04:20:23;;;;;;;1.02;0.98;;;9.30;99.90;;;;;;5008131;28;20284;-27
2021/01/02 04:22:53;;;;;;;2.35;1.35;;;9.30;99.90;;;;;;5011926;28;20188;-27
2021/01/02 04:25:23;;;;;;;2.03;1.40;;;9.30;99.90;;;;;;5012380;28;20627;-27
2021/01/02 04:27:53;;;;;;;43.33;6.88;;;9.30;99.90;;;;;;5012310;28;20689;-27
2021/01/02 04:30:25;;;;;;;1.27;1.05;;;9.40;99.90;;;;;;5009244;28;20250;-27
2021/01/02 04:32:55;;;;;;;1.10;1.00;;;9.30;99.90;;;;;;5012440;28;20191;-27
2021/01/02 04:35:25;;;;;;;1.60;1.00;;;9.30;99.90;;;;;;5011618;28;20203;-27
2021/01/02 04:37:55;;;;;;;1.42;0.90;;;9.30;99.90;;;;;;5004579;28;20565;-27
2021/01/02 04:40:26;;;;;;;2.33;1.30;;;9.30;99.90;;;;;;4992464;28;20193;-28
2021/01/02 04:42:56;;;;;;;1.65;1.27;;;9.30;99.90;;;;;;5004824;28;20643;-28
2021/01/02 04:45:29;;;;;;;1.00;1.00;;;9.30;99.90;;;;;;5011793;28;20600;-28
2021/01/02 04:48:07;;;;;;;1.63;1.20;;;9.20;99.90;;;;;;5012555;28;20624;-28
2021/01/02 04:50:37;;;;;;;1.10;0.98;;;9.20;99.90;;;;;;5008217;28;20230;-28
2021/01/02 04:53:08;;;;;;;1.35;0.88;;;9.20;99.90;;;;;;5012288;28;20199;-28
2021/01/02 04:55:46;;;;;;;1.40;1.30;;;9.20;99.90;;;;;;5012368;28;20226;-29
2021/01/02 04:58:18;;;;;;;1.35;1.25;;;9.20;99.90;;;;;;5011617;28;20218;-27
2021/01/02 05:00:50;;;;;;;0.80;0.80;;;9.10;99.90;;;;;;5011482;28;20325;-27
2021/01/02 05:03:20;;;;;;;0.70;0.70;;;9.10;99.90;;;;;;5011840;28;20200;-27
2021/01/02 05:05:51;;;;;;;1.05;0.80;;;9.10;99.90;;;;;;5010698;28;20190;-27
2021/01/02 05:08:21;;;;;;;1.63;1.38;;;9.20;99.90;;;;;;5012885;28;20203;-27
2021/01/02 05:10:59;;;;;;;1.17;1.00;;;9.20;99.90;;;;;;5028379;28;20238;-27
2021/01/02 05:13:31;;;;;;;1.77;1.63;;;9.20;99.90;;;;;;5010047;28;20187;-28
2021/01/02 05:16:18;;;;;;;1.95;1.25;;;9.10;99.90;;;;;;5011027;28;20191;-28
2021/01/02 05:18:55;;;;;;;1.45;0.95;;;9.20;99.90;;;;;;5011789;28;20245;-27
2021/01/02 05:21:26;;;;;;;2.20;2.00;;;9.20;99.90;;;;;;5011816;28;20625;-27
2021/01/02 05:24:10;;;;;;;1.50;1.40;;;9.20;99.90;;;;;;5011883;28;20635;-27
2021/01/02 05:26:42;;;;;;;2.90;2.70;;;9.20;99.90;;;;;;5011501;28;20202;-28
2021/01/02 05:29:23;;;;;;;2.17;2.00;;;9.20;99.90;;;;;;5003949;28;20239;-27
2021/01/02 05:31:55;;;;;;;1.73;1.60;;;9.20;99.90;;;;;;5009820;28;20678;-28
2021/01/02 05:34:27;;;;;;;1.60;1.50;;;9.20;99.90;;;;;;5008647;28;20271;-28
2021/01/02 05:37:08;;;;;;;1.23;1.13;;;9.20;99.90;;;;;;5006389;28;20200;-29
2021/01/02 05:39:39;;;;;;;1.98;1.63;;;9.20;99.90;;;;;;4999435;28;20227;-27
2021/01/02 05:42:10;;;;;;;1.75;1.60;;;9.30;99.90;;;;;;4992668;28;20216;-28
2021/01/02 05:44:41;;;;;;;1.70;1.60;;;9.30;99.90;;;;;;4996430;28;20194;-28
2021/01/02 05:47:14;;;;;;;1.60;1.50;;;9.30;99.90;;;;;;5009039;28;20203;-27
2021/01/02 05:49:48;;;;;;;0.82;0.80;;;9.20;99.90;;;;;;5003342;28;20211;-28
2021/01/02 05:52:18;;;;;;;1.38;1.23;;;9.20;99.90;;;;;;5010872;28;20651;-27
2021/01/02 05:54:51;;;;;;;2.03;1.55;;;9.30;99.90;;;;;;5003126;28;20195;-27
2021/01/02 05:57:27;;;;;;;1.45;1.35;;;9.30;99.90;;;;;;4999181;28;21692;-28
2021/01/02 05:59:58;;;;;;;1.85;1.40;;;9.30;99.90;;;;;;5010660;28;20202;-27
2021/01/02 06:02:31;;;;;;;1.60;1.50;;;9.30;99.90;;;;;;5011315;28;20590;-27
2021/01/02 06:05:03;;;;;;;3.15;1.35;;;9.30;99.90;;;;;;5010813;28;20234;-27
2021/01/02 06:07:35;;;;;;;1.50;1.40;;;9.40;99.90;;;;;;5010954;28;20207;-28
2021/01/02 06:10:08;;;;;;;1.13;1.13;;;9.30;99.90;;;;;;5011145;28;20295;-28
2021/01/02 06:12:39;;;;;;;1.13;1.13;;;9.40;99.90;;;;;;5010539;28;20645;-28
2021/01/02 06:15:11;;;;;;;1.40;0.90;;;9.40;99.90;;;;;;5010050;28;20570;-27
2021/01/02 06:17:44;;;;;;;1.33;0.80;;;9.40;99.90;;;;;;5010492;28;20191;-27
2021/01/02 06:20:16;;;;;;;1.20;1.20;;;9.40;99.90;;;;;;5010758;28;20761;-28
2021/01/02 06:22:46;;;;;;;2.47;1.55;;;9.40;99.90;;;;;;5010512;28;20612;-27
2021/01/02 06:25:16;;;;;;;2.00;1.30;;;9.50;99.90;;;;;;5010188;28;20199;-28
2021/01/02 06:27:47;;;;;;;1.15;0.95;;;9.40;99.90;;;;;;5009615;28;20204;-27
2021/01/02 06:30:19;;;;;;;2.38;1.50;;;9.50;99.90;;;;;;5010244;28;20239;-27
2021/01/02 06:32:51;;;;;;;1.40;0.85;;;9.50;99.90;;;;;;5010554;28;20666;-27
2021/01/02 06:35:23;;;;;;;1.77;1.23;;;9.40;99.90;;;;;;5001599;28;20253;-27
2021/01/02 06:38:14;;;;;;;1.60;1.50;;;9.40;99.90;;;;;;5001455;28;20188;-27
2021/01/02 06:40:47;;;;;;;1.60;1.23;;;9.40;99.90;;;;;;4986420;28;20215;-27
2021/01/02 06:43:19;;;;;;;0.80;0.80;;;9.40;99.90;;;;;;4990806;28;20206;-27
2021/01/02 06:45:58;;;;;;;1.00;0.90;;;9.30;99.90;;;;;;4998194;28;20194;-27
2021/01/02 06:48:43;;;;;;;1.25;0.90;;;9.40;99.90;;;;;;5010288;28;20254;-27
2021/01/02 06:51:33;;;;;;;2.05;0.80;;;9.40;99.90;;;;;;5009814;28;20583;-27
2021/01/02 06:54:22;;;;;;;2.65;0.90;;;9.40;99.90;;;;;;5010018;28;20188;-27
2021/01/02 06:57:03;;;;;;;2.45;0.90;;;9.40;99.90;;;;;;5009367;28;20192;-27
2021/01/02 06:59:34;;;;;;;1.15;0.80;;;9.40;99.90;;;;;;5009557;28;20218;-27
2021/01/02 07:02:04;;;;;;;1.30;0.80;;;9.40;99.90;;;;;;5010307;28;20196;-27
2021/01/02 07:04:39;;;;;;;0.80;0.70;;;9.40;99.90;;;;;;5010000;28;20199;-28
2021/01/02 07:07:09;;;;;;;1.20;0.98;;;9.50;99.90;;;;;;5009511;28;20203;-27
2021/01/02 07:09:43;;;;;;;0.82;0.82;;;9.40;99.90;;;;;;5008436;28;20578;-28
2021/01/02 07:12:15;;;;;;;1.83;0.93;;;9.40;99.90;;;;;;5009064;28;20227;-28
2021/01/02 07:14:45;;;;;;;0.98;0.88;;;9.50;99.90;;;;;;5008965;28;20257;-27
2021/01/02 07:17:24;;;;;;;1.30;0.80;;;9.40;99.90;;;;;;5007524;28;20687;-28
2021/01/02 07:19:57;;;;;;;0.73;0.73;;;9.40;99.90;;;;;;5009896;28;20249;-27
2021/01/02 07:22:28;;;;;;;0.88;0.65;;;9.50;99.90;;;;;;5009636;28;20196;-28
2021/01/02 07:25:08;;;;;;;0.70;0.70;;;9.40;99.90;;;;;;5009414;28;20214;-28
2021/01/02 07:27:40;;;;;;;1.20;0.50;;;9.40;99.90;;;;;;5003280;28;20222;-27
2021/01/02 07:30:12;;;;;;;0.60;0.50;;;9.50;99.90;;;;;;5012820;28;20249;-28
2021/01/02 07:32:43;;;;;;;1.58;0.80;;;9.50;99.90;;;;;;5013742;28;20210;-27
2021/01/02 07:35:16;;;;;;;2.45;0.70;;;9.40;99.90;;;;;;5013451;28;20251;-27
2021/01/02 07:37:47;;;;;;;0.80;0.80;;;9.40;99.90;;;;;;5013287;28;20536;-28
2021/01/02 07:40:20;;;;;;;0.50;0.50;;;9.50;99.90;;;;;;5013344;28;20261;-27
2021/01/02 07:42:51;;;;;;;1.73;0.85;;;9.50;99.90;;;;;;5013695;28;20239;-27
2021/01/02 07:45:23;;;;;;;1.15;0.73;;;9.40;99.90;;;;;;5012997;28;20262;-28
2021/01/02 07:47:56;;;;;;;1.30;0.40;;;9.40;99.90;;;;;;5013616;28;20584;-27
2021/01/02 07:50:30;;;;;;;0.50;0.50;;;9.50;99.90;;;;;;5013624;28;20233;-27
2021/01/02 07:53:02;;;;;;;1.48;0.60;;;9.40;99.90;;;;;;5013395;28;20361;-27
2021/01/02 07:55:33;;;;;;;0.60;0.50;;;9.40;99.90;;;;;;5013005;28;20207;-28
2021/01/02 07:58:04;;;;;;;0.70;0.60;;;9.40;99.90;;;;;;5001930;28;20199;-27
2021/01/02 08:00:34;;;;;;;1.77;0.40;;;9.40;99.90;;;;;;5012726;28;20608;-27
2021/01/02 08:03:06;;;;;;;0.50;0.47;;;9.40;99.90;;;;;;5012918;28;20279;-27
2021/01/02 08:05:38;;;;;;;0.60;0.52;;;9.30;99.90;;;;;;5012815;28;20786;-28
2021/01/02 08:08:08;;;;;;;0.75;0.55;;;9.30;99.90;;;;;;5013060;28;20199;-28
2021/01/02 08:10:44;;;;;;;2.05;0.50;;;9.40;99.90;;;;;;5012523;28;20219;-28
2021/01/02 08:13:18;;;;;;;0.80;0.57;;;9.40;99.90;;;;;;5012420;28;20309;-28
2021/01/02 08:15:54;;;;;;;0.88;0.60;;;9.40;99.90;;;;;;5012955;28;20274;-28
2021/01/02 08:18:24;;;;;;;0.40;0.40;;;9.40;99.90;;;;;;5012660;28;20282;-28
2021/01/02 08:21:08;;;;;;;1.35;0.55;;;9.40;99.90;;;;;;5012702;28;20269;-28
2021/01/02 08:23:42;;;;;;;0.95;0.40;;;9.40;99.90;;;;;;5013198;28;20211;-28
2021/01/02 08:26:12;;;;;;;0.70;0.70;;;9.30;99.90;;;;;;5011953;28;20199;-28
2021/01/02 08:28:44;;;;;;;1.20;0.60;;;9.30;99.90;;;;;;5012693;28;20265;-28
2021/01/02 08:31:16;;;;;;;1.20;0.82;;;9.30;99.90;;;;;;5011934;28;20243;-28
2021/01/02 08:33:51;;;;;;;1.55;0.70;;;9.30;99.90;;;;;;5012695;28;20207;-28
2021/01/02 08:36:23;;;;;;;0.52;0.50;;;9.20;99.90;;;;;;5012125;28;20249;-28
2021/01/02 08:39:00;;;;;;;0.90;0.40;;;9.20;99.90;;;;;;4998676;28;20211;-28
2021/01/02 08:41:30;;;;;;;0.55;0.55;;;9.20;99.90;;;;;;5010986;28;20199;-28
2021/01/02 08:44:03;;;;;;;0.60;0.60;;;9.20;99.90;;;;;;5012707;28;20218;-28
2021/01/02 08:46:36;;;;;;;0.80;0.52;;;9.20;99.90;;;;;;5011721;28;20210;-28
2021/01/02 08:49:06;;;;;;;0.90;0.52;;;9.10;99.90;;;;;;5012015;28;20195;-28
2021/01/02 08:51:37;;;;;;;1.27;0.90;;;9.10;99.90;;;;;;5011710;28;20239;-28
2021/01/02 08:54:15;;;;;;;0.50;0.47;;;9.20;99.90;;;;;;5012324;28;20607;-28
2021/01/02 08:56:45;;;;;;;2.15;0.47;;;9.20;99.90;;;;;;5011448;28;20199;-28
2021/01/02 08:59:15;;;;;;;0.68;0.57;;;9.20;99.90;;;;;;5010812;28;20218;-27
2021/01/02 09:01:45;;;;;;;1.30;0.45;;;9.20;99.90;;;;;;5011842;28;20211;-27
2021/01/02 09:04:15;;;;;;;0.40;0.38;;;9.20;99.90;;;;;;5011879;28;20573;-27
2021/01/02 09:06:47;;;;;;;1.10;0.43;;;9.10;99.90;;;;;;5012125;28;20250;-27
2021/01/02 09:09:17;;;;;;;0.60;0.40;;;9.10;99.90;;;;;;5011637;28;20196;-27
2021/01/02 09:11:51;;;;;;;0.60;0.57;;;9.20;99.90;;;;;;4996909;28;20290;-27
2021/01/02 09:14:21;;;;;;;0.73;0.40;;;9.10;99.90;;;;;;5011396;28;20253;-27
2021/01/02 09:17:00;;;;;;;0.82;0.50;;;9.20;99.90;;;;;;5012348;28;20644;-27
2021/01/02 09:19:32;;;;;;;2.72;0.50;;;9.10;99.90;;;;;;5011719;28;20217;-27
2021/01/02 09:22:04;;;;;;;0.60;0.40;;;9.20;99.90;;;;;;5011637;28;20212;-28
2021/01/02 09:24:34;;;;;;;0.65;0.30;;;9.20;99.90;;;;;;5011723;28;20635;-28
2021/01/02 09:27:04;;;;;;;1.38;0.57;;;9.20;99.90;;;;;;5011084;28;20233;-28
2021/01/02 09:29:39;;;;;;;0.50;0.40;;;9.20;99.90;;;;;;5009359;28;20254;-28
2021/01/02 09:32:12;;;;;;;1.20;0.43;;;9.30;99.90;;;;;;5009914;28;20191;-28
2021/01/02 09:34:42;;;;;;;0.82;0.40;;;9.30;99.90;;;;;;5009931;28;20196;-28
2021/01/02 09:37:13;;;;;;;0.93;0.50;;;9.30;99.90;;;;;;4998926;28;20199;-28
2021/01/02 09:40:17;;;;;;;0.50;0.43;;;9.30;99.90;;;;;;5011272;28;20195;-28
2021/01/02 09:42:48;;;;;;;0.50;0.50;;;9.30;99.90;;;;;;4991873;28;20578;-28
2021/01/02 09:45:18;;;;;;;0.47;0.47;;;9.30;99.90;;;;;;4991225;28;20196;-28
2021/01/02 09:47:49;;;;;;;1.40;0.45;;;9.30;99.90;;;;;;4992955;28;20615;-28
2021/01/02 09:50:19;;;;;;;0.40;0.40;;;9.30;99.90;;;;;;5010896;28;20694;-28
2021/01/02 09:52:49;;;;;;;2.67;0.88;;;9.30;99.90;;;;;;5010474;28;20253;-28
2021/01/02 09:55:23;;;;;;;1.95;0.40;;;9.30;99.90;;;;;;5010807;28;20195;-28
2021/01/02 09:57:54;;;;;;;0.70;0.70;;;9.30;99.90;;;;;;5010802;28;20194;-30
2021/01/02 10:00:26;;;;;;;1.15;0.50;;;9.30;99.90;;;;;;5010800;28;20196;-28
2021/01/02 10:02:56;;;;;;;1.70;0.40;;;9.30;99.90;;;;;;5001440;28;20196;-28
2021/01/02 10:05:43;;;;;;;2.95;0.70;;;9.30;99.90;;;;;;4996362;28;20183;-28
2021/01/02 10:08:13;;;;;;;0.57;0.57;;;9.30;99.90;;;;;;5007774;28;20195;-28
2021/01/02 10:10:44;;;;;;;0.57;0.43;;;9.30;99.90;;;;;;5010745;28;20234;-28
2021/01/02 10:13:16;;;;;;;1.02;0.20;;;9.30;99.90;;;;;;5010311;28;20432;-28
2021/01/02 10:15:47;;;;;;;0.85;0.45;;;9.30;99.90;;;;;;5000708;28;20254;-27
2021/01/02 10:18:17;;;;;;;1.00;0.50;;;9.30;99.90;;;;;;4991092;28;20632;-29
2021/01/02 10:20:47;;;;;;;2.50;0.52;;;9.30;99.90;;;;;;4991077;28;20515;-28
2021/01/02 10:23:17;;;;;;;0.82;0.30;;;9.30;99.90;;;;;;5004140;28;20218;-28
2021/01/02 10:25:49;;;;;;;1.42;0.75;;;9.30;99.90;;;;;;5010756;28;20199;-28
2021/01/02 10:28:20;;;;;;;1.92;0.52;;;9.30;99.90;;;;;;5010512;28;20191;-28
2021/01/02 10:30:50;;;;;;;2.25;0.77;;;9.30;99.90;;;;;;5009323;28;20227;-28
2021/01/02 10:33:20;;;;;;;1.30;0.55;;;9.30;99.90;;;;;;4997111;28;20204;-28
2021/01/02 10:35:50;;;;;;;1.08;0.40;;;9.40;99.90;;;;;;5006754;28;20214;-28
2021/01/02 10:38:20;;;;;;;1.13;0.40;;;9.50;99.90;;;;;;5010977;28;20200;-28
2021/01/02 10:40:52;;;;;;;1.15;0.40;;;9.50;99.90;;;;;;5010214;28;20608;-28
2021/01/02 10:43:22;;;;;;;0.60;0.40;;;9.40;99.90;;;;;;5008735;28;20206;-28
2021/01/02 10:45:53;;;;;;;0.50;0.38;;;9.40;99.90;;;;;;5009822;28;20204;-28
2021/01/02 10:48:23;;;;;;;0.68;0.50;;;9.40;99.90;;;;;;5009964;28;20632;-28
2021/01/02 10:50:53;;;;;;;1.00;0.30;;;9.40;99.90;;;;;;5009635;28;20271;-28
2021/01/02 10:53:23;;;;;;;0.43;0.43;;;9.40;99.90;;;;;;5004816;28;20278;-28
2021/01/02 10:55:55;;;;;;;1.45;0.50;;;9.50;99.90;;;;;;5006518;28;20199;-28
2021/01/02 10:58:26;;;;;;;1.35;0.43;;;9.40;99.90;;;;;;5008150;28;20203;-28
2021/01/02 11:00:58;;;;;;;2.47;0.73;;;9.40;99.90;;;;;;5008133;28;20199;-28
2021/01/02 11:03:29;;;;;;;0.80;0.47;;;9.40;99.90;;;;;;5007622;28;20257;-28
2021/01/02 11:05:59;;;;;;;1.00;0.45;;;9.40;99.90;;;;;;5009717;28;20214;-28
2021/01/02 11:08:31;;;;;;;0.60;0.40;;;9.40;99.90;;;;;;5009836;28;20556;-28
2021/01/02 11:11:06;;;;;;;0.95;0.50;;;9.40;99.90;;;;;;5009158;28;20227;-29
2021/01/02 11:13:37;;;;;;;0.68;0.52;;;9.40;99.90;;;;;;5009659;28;20187;-28
2021/01/02 11:16:08;;;;;;;1.77;0.50;;;9.40;99.90;;;;;;5009057;28;20524;-28
2021/01/02 11:18:38;;;;;;;1.05;0.30;;;9.50;99.90;;;;;;5010028;28;20203;-28
2021/01/02 11:21:11;;;;;;;0.52;0.40;;;9.40;99.90;;;;;;5009732;28;20219;-28
2021/01/02 11:23:41;;;;;;;2.95;0.75;;;9.40;99.90;;;;;;5010285;28;20654;-28
2021/01/02 11:26:12;;;;;;;1.58;0.47;;;9.40;99.90;;;;;;5009023;28;20203;-28
2021/01/02 11:28:43;;;;;;;0.60;0.52;;;9.30;99.90;;;;;;5009917;28;20245;-28
2021/01/02 11:31:13;;;;;;;0.88;0.88;;;9.40;99.90;;;;;;5008998;28;20334;-28
2021/01/02 11:33:43;;;;;;;0.40;0.40;;;9.40;99.90;;;;;;5009669;28;20682;-28
2021/01/02 11:36:13;;;;;;;1.92;0.60;;;9.40;99.90;;;;;;5009314;28;20204;-28
2021/01/02 11:38:43;;;;;;;1.10;0.60;;;9.40;99.90;;;;;;5009910;28;20208;-28
2021/01/02 11:41:15;;;;;;;0.40;0.30;;;9.40;99.90;;;;;;5008819;28;20550;-28
2021/01/02 11:43:45;;;;;;;1.67;0.70;;;9.40;99.90;;;;;;5007314;28;20513;-28
2021/01/02 11:46:15;;;;;;;2.60;0.52;;;9.30;99.90;;;;;;4989867;28;20328;-28
2021/01/02 11:48:48;;;;;;;1.65;0.60;;;9.30;99.90;;;;;;4994170;28;20203;-27
2021/01/02 11:51:18;;;;;;;1.40;0.52;;;9.30;99.90;;;;;;5009316;28;20231;-28
2021/01/02 11:53:48;;;;;;;1.92;0.40;;;9.30;99.90;;;;;;5009529;28;20215;-28
2021/01/02 11:56:23;;;;;;;0.50;0.40;;;9.20;99.90;;;;;;5009146;28;20207;-28
2021/01/02 11:58:54;;;;;;;0.60;0.32;;;9.30;99.90;;;;;;5009175;28;20191;-28
2021/01/02 12:01:34;;;;;;;2.65;0.50;;;9.20;99.90;;;;;;4998723;28;20193;-28
2021/01/02 12:04:07;;;;;;;0.73;0.38;;;9.20;99.90;;;;;;4989885;28;20204;-28
2021/01/02 12:06:39;;;;;;;1.05;0.80;;;9.20;99.90;;;;;;4989914;28;20200;-28
2021/01/02 12:09:13;;;;;;;1.67;0.40;;;9.30;99.90;;;;;;4989798;28;20716;-28
2021/01/02 12:11:47;;;;;;;1.25;0.50;;;9.30;99.90;;;;;;4990054;28;20306;-29
2021/01/02 12:14:28;;;;;;;1.52;0.52;;;9.30;99.90;;;;;;5008028;28;20607;-29
2021/01/02 12:17:06;;;;;;;0.65;0.50;;;9.30;99.90;;;;;;4994529;28;20207;-29
2021/01/02 12:19:36;;;;;;;1.02;0.47;;;9.40;99.90;;;;;;4993428;28;20241;-28
2021/01/02 12:22:13;;;;;;;0.52;0.50;;;9.40;99.90;;;;;;4993443;28;20239;-29
2021/01/02 12:24:44;;;;;;;1.27;0.45;;;9.50;99.90;;;;;;5007927;28;20624;-27
2021/01/02 12:27:23;;;;;;;1.70;0.70;;;9.50;99.90;;;;;;5006142;28;20483;-28
2021/01/02 12:29:54;;;;;;;0.50;0.50;;;9.50;99.90;;;;;;5010544;28;20227;-26
2021/01/02 12:32:29;;;;;;;1.40;0.50;;;9.50;99.90;;;;;;5011143;28;20203;-27
2021/01/02 12:34:59;;;;;;;0.60;0.47;;;9.50;99.90;;;;;;4997967;28;20515;-27
2021/01/02 12:37:29;;;;;;;2.85;0.90;;;9.50;99.90;;;;;;5011149;28;20266;-27
2021/01/02 12:39:59;;;;;;;0.70;0.50;;;9.60;99.90;;;;;;5012516;28;20218;-27
2021/01/02 12:42:31;;;;;;;0.85;0.55;;;9.60;99.90;;;;;;5012120;28;20207;-27
2021/01/02 12:45:01;;;;;;;0.65;0.50;;;9.50;99.90;;;;;;5011906;28;20207;-27
2021/01/02 12:47:31;;;;;;;1.13;0.73;;;9.50;99.90;;;;;;5012098;28;20215;-27
2021/01/02 12:50:01;;;;;;;2.10;0.65;;;9.50;99.90;;;;;;5012298;28;20191;-27
2021/01/02 12:52:32;;;;;;;1.60;0.70;;;9.50;99.90;;;;;;5012214;28;20208;-27
2021/01/02 12:55:02;;;;;;;2.15;0.60;;;9.60;99.90;;;;;;5011852;28;20199;-28
2021/01/02 12:57:33;;;;;;;0.95;0.50;;;9.50;99.90;;;;;;5011553;28;20207;-28
2021/01/02 13:00:05;;;;;;;1.15;0.40;;;9.50;99.90;;;;;;5011901;28;20515;-28
2021/01/02 13:02:35;;;;;;;1.33;0.80;;;9.60;99.90;;;;;;5012068;28;20201;-28
2021/01/02 13:05:06;;;;;;;2.47;0.57;;;9.60;99.90;;;;;;5011688;28;20204;-28
2021/01/02 13:07:36;;;;;;;1.65;0.80;;;9.60;99.90;;;;;;5012139;28;20228;-28
2021/01/02 13:10:07;;;;;;;1.15;0.50;;;9.60;99.90;;;;;;5011530;28;20678;-28
2021/01/02 13:12:38;;;;;;;1.30;0.60;;;9.70;99.90;;;;;;5011594;28;20246;-28
2021/01/02 13:15:09;;;;;;;1.27;0.98;;;9.70;99.90;;;;;;5011616;28;20203;-28
2021/01/02 13:17:39;;;;;;;0.77;0.60;;;9.70;99.90;;;;;;4996061;28;20222;-28
2021/01/02 13:20:10;;;;;;;1.50;0.60;;;9.80;99.90;;;;;;5011022;28;20200;-28
2021/01/02 13:22:40;;;;;;;1.23;0.80;;;9.80;99.90;;;;;;5009760;28;20207;-29
2021/01/02 13:25:11;;;;;;;1.02;0.60;;;9.80;99.90;;;;;;5009384;28;20203;-29
2021/01/02 13:27:43;;;;;;;2.28;0.90;;;9.90;99.90;;;;;;5010635;28;20192;-28
2021/01/02 13:30:14;;;;;;;1.05;0.50;;;9.90;99.90;;;;;;5009259;28;20223;-29